Flight Number: AVA4091 Duration: 6:30
Departure: Singapore Changi Airport (WSSS) at 00:30 Distance: 2864.27 Nm
Arrival: Tokyo Intl (RJTT) at 07:00 Equipment: B777

Weather Information
Singapore / Changi Airport, Singapore (WSSS) 01-22N 103-59E 16M Aug 11, 2022 - 12:30 AM EDT / 2022.08.11 0430 UTC
Wind: from the S (170 degrees) at 8 MPH (7 KT) (direction variable):0
Visibility: greater than 7 mile(s):0
Sky conditions: mostly cloudy Weather: Towering cumulus clouds observed Temperature: 89 F (32 C) Heat index: 100.6 F (38.1 C):1 Dew Point: 77 F (25 C) Relative Humidity: 66% Pressure (altimeter): 29.77 in. Hg (1008 hPa)
ob: WSSS 110430Z 17007KT 110V220 9999 SCT018 FEW020TCU BKN300 32/25 Q1008 NOSIG cycle: 4
Sunrise: 23:06 Sunset: 11:11 (UTC)

Tokyo International Airport, Japan (RJTT) 35-33N 139-47E 8M Aug 11, 2022 - 12:30 AM EDT / 2022.08.11 0430 UTC
Wind: from the S (180 degrees) at 21 MPH (18 KT):0
Visibility: greater than 7 mile(s):0
Sky conditions: mostly cloudy Weather: Towering cumulus clouds observed Temperature: 87 F (31 C) Heat index: 99.7 F (37.6 C):1 Dew Point: 78 F (26 C) Relative Humidity: 74% Pressure (altimeter): 29.83 in. Hg (1010 hPa)
ob: RJTT 110430Z 18018KT 9999 FEW020 SCT030 FEW040TCU BKN/// 31/26 Q1010 NOSIG RMK 1CU020 3CU030 1TCU040 A2983 TCU SW cycle: 4
Sunrise: 20:00 Sunset: 09:32 (UTC)

TAF:2022/08/10 18:33 TAF RJTT 101705Z 1018/1200 20014KT 9999 FEW020

This route has never been flown.

Route map